createdAt,value
2023-02-15T00:02:34.149Z,100686.09
2023-02-15T00:08:36.101Z,100676.84
2023-02-15T00:14:38.122Z,100674.50
2023-02-15T00:20:40.000Z,100667.19
2023-02-15T00:26:43.109Z,100655.06
2023-02-15T00:32:44.993Z,100643.22
2023-02-15T00:38:46.867Z,100648.94
2023-02-15T00:44:48.747Z,100658.66
2023-02-15T00:50:54.585Z,100661.28
2023-02-15T00:56:56.473Z,100656.34
2023-02-15T01:02:58.366Z,100647.88
2023-02-15T01:09:00.303Z,100647.34
2023-02-15T01:15:02.237Z,100635.22
2023-02-15T01:21:22.572Z,100631.16
2023-02-15T01:27:24.536Z,100638.44
2023-02-15T01:33:26.730Z,100635.88
2023-02-15T01:39:28.640Z,100625.94
2023-02-15T01:45:32.954Z,100624.84
2023-02-15T01:51:37.196Z,100621.03
2023-02-15T01:57:39.790Z,100625.69
2023-02-15T02:03:54.214Z,100626.03
2023-02-15T02:09:56.228Z,100627.16
2023-02-15T02:16:31.806Z,100623.25
2023-02-15T02:23:06.723Z,100612.16
2023-02-15T02:29:44.924Z,100601.63
2023-02-15T02:35:57.786Z,100598.34
2023-02-15T02:42:06.648Z,100607.94
2023-02-15T02:48:19.740Z,100601.63
2023-02-15T02:54:21.674Z,100585.22
2023-02-15T03:00:27.935Z,100586.63
2023-02-15T03:06:58.410Z,100579.03
2023-02-15T03:13:00.815Z,100570.47
2023-02-15T03:19:46.552Z,100560.03
2023-02-15T03:25:56.524Z,100554.53
2023-02-15T03:32:03.994Z,100554.09
2023-02-15T03:38:09.996Z,100556.41
2023-02-15T03:44:32.003Z,100556.00
2023-02-15T03:50:56.975Z,100540.16
2023-02-15T03:57:17.599Z,100534.09
2023-02-15T04:03:29.281Z,100541.91
2023-02-15T04:09:49.542Z,100536.31
2023-02-15T04:16:07.811Z,100538.34
2023-02-15T04:22:28.742Z,100535.28
2023-02-15T04:28:30.630Z,100537.53
2023-02-15T04:34:32.528Z,100541.00
2023-02-15T04:40:34.410Z,100541.84
2023-02-15T04:46:36.659Z,100532.66
2023-02-15T04:52:38.549Z,100527.38
2023-02-15T04:58:43.359Z,100527.69
2023-02-15T05:04:45.289Z,100513.88
2023-02-15T05:10:49.972Z,100510.19
2023-02-15T05:16:51.943Z,100515.03
2023-02-15T05:22:56.965Z,100498.16
2023-02-15T05:28:58.986Z,100493.81
2023-02-15T05:35:00.877Z,100491.00
2023-02-15T05:41:02.750Z,100478.63
2023-02-15T05:47:05.479Z,100483.91
2023-02-15T05:53:07.537Z,100493.25
2023-02-15T05:59:09.506Z,100491.91
2023-02-15T06:05:11.432Z,100491.50
2023-02-15T06:11:13.327Z,100509.03
2023-02-15T06:17:15.339Z,100506.06
2023-02-15T06:23:18.108Z,100503.09
2023-02-15T06:29:20.069Z,100503.53
2023-02-15T06:35:22.904Z,100511.47
2023-02-15T06:41:25.392Z,100509.78
2023-02-15T06:47:27.298Z,100505.13
2023-02-15T06:53:29.225Z,100504.81
2023-02-15T06:59:31.137Z,100504.91
2023-02-15T07:05:35.280Z,100492.88
2023-02-15T07:11:55.706Z,100489.13
2023-02-15T07:17:59.570Z,100484.31
2023-02-15T07:24:01.905Z,100488.00
2023-02-15T07:30:09.046Z,100469.72
2023-02-15T07:36:13.028Z,100462.66
2023-02-15T07:42:14.989Z,100459.53
2023-02-15T07:48:16.873Z,100463.00
2023-02-15T07:54:18.841Z,100457.31
2023-02-15T08:00:42.735Z,100455.13
2023-02-15T08:06:44.619Z,100461.63
2023-02-15T08:12:46.488Z,100467.50
2023-02-15T08:18:48.753Z,100461.72
2023-02-15T08:24:51.212Z,100469.03
2023-02-15T08:30:53.137Z,100466.81
2023-02-15T08:36:55.133Z,100481.16
2023-02-15T08:42:57.021Z,100481.72
2023-02-15T08:48:59.775Z,100470.97
2023-02-15T08:55:01.678Z,100471.28
2023-02-15T09:01:20.886Z,100458.72
2023-02-15T09:07:22.907Z,100450.91
2023-02-15T09:13:25.083Z,100449.72
2023-02-15T09:19:27.030Z,100438.03
2023-02-15T09:25:29.080Z,100436.84
2023-02-15T09:31:39.386Z,100439.06
2023-02-15T09:37:41.389Z,100443.66
2023-02-15T09:44:15.233Z,100445.72
2023-02-15T09:50:44.513Z,100422.47
2023-02-15T09:56:58.175Z,100416.88
2023-02-15T10:03:17.116Z,100413.19
2023-02-15T10:10:02.518Z,100406.59
2023-02-15T10:16:49.161Z,100410.66
2023-02-15T10:23:34.361Z,100401.50
2023-02-15T10:29:39.420Z,100404.09
2023-02-15T10:36:15.122Z,100404.75
2023-02-15T10:42:50.650Z,100400.88
2023-02-15T10:49:10.810Z,100385.59
2023-02-15T10:55:22.850Z,100380.78
2023-02-15T11:01:45.884Z,100363.22
2023-02-15T11:07:52.381Z,100365.09
2023-02-15T11:14:28.673Z,100359.78
2023-02-15T11:20:43.560Z,100364.59
2023-02-15T11:27:04.111Z,100358.47
2023-02-15T11:33:07.604Z,100370.78
2023-02-15T11:39:15.245Z,100360.38
2023-02-15T11:45:29.003Z,100356.75
2023-02-15T11:51:30.953Z,100339.88
2023-02-15T11:57:43.353Z,100340.13
2023-02-15T12:03:50.514Z,100326.34
2023-02-15T12:10:19.331Z,100324.97
2023-02-15T12:16:21.294Z,100326.31
2023-02-15T12:22:33.505Z,100324.66
2023-02-15T12:28:41.243Z,100309.25
2023-02-15T12:34:44.742Z,100314.97
2023-02-15T12:41:04.648Z,100305.63
2023-02-15T12:47:20.283Z,100295.06
2023-02-15T12:53:34.855Z,100292.63
2023-02-15T12:59:38.641Z,100279.38
2023-02-15T13:05:45.315Z,100283.50
2023-02-15T13:11:48.172Z,100273.97
2023-02-15T13:17:50.048Z,100270.19
2023-02-15T13:24:03.984Z,100263.41
2023-02-15T13:30:35.897Z,100251.47
2023-02-15T13:37:09.405Z,100246.09
2023-02-15T13:43:33.915Z,100244.50
2023-02-15T13:50:23.060Z,100230.69
2023-02-15T13:57:01.678Z,100229.28
2023-02-15T14:03:25.231Z,100231.38
2023-02-15T14:10:13.092Z,100227.75
2023-02-15T14:17:06.126Z,100218.09
2023-02-15T14:23:58.269Z,100206.53
2023-02-15T14:30:24.557Z,100208.03
2023-02-15T14:36:30.845Z,100207.50
2023-02-15T14:42:46.966Z,100203.94
2023-02-15T14:48:51.631Z,100194.34
2023-02-15T14:54:58.964Z,100199.16
2023-02-15T15:01:13.561Z,100194.03
2023-02-15T15:07:58.028Z,100187.41
2023-02-15T15:14:01.800Z,100183.28
2023-02-15T15:20:26.970Z,100181.16
2023-02-15T15:26:34.356Z,100189.56
2023-02-15T15:32:36.688Z,100185.31
2023-02-15T15:39:40.430Z,100184.69
2023-02-15T15:46:12.105Z,100184.97
2023-02-15T15:52:17.868Z,100188.69
2023-02-15T15:58:20.879Z,100181.47
2023-02-15T16:04:32.911Z,100177.97
2023-02-15T16:10:36.914Z,100180.53
2023-02-15T16:16:38.902Z,100173.91
2023-02-15T16:22:41.088Z,100176.13
2023-02-15T16:28:55.448Z,100174.69
2023-02-15T16:35:03.465Z,100182.75
2023-02-15T16:41:05.695Z,100182.63
2023-02-15T16:47:22.170Z,100182.06
2023-02-15T16:53:28.231Z,100167.47
2023-02-15T16:59:36.446Z,100182.94
2023-02-15T17:05:45.616Z,100188.56
2023-02-15T17:11:47.557Z,100186.81
2023-02-15T17:17:49.982Z,100191.09
2023-02-15T17:23:57.728Z,100178.38
2023-02-15T17:30:04.404Z,100178.53
2023-02-15T17:36:09.810Z,100180.47
2023-02-15T17:42:11.694Z,100191.72
2023-02-15T17:48:23.665Z,100204.84
2023-02-15T17:54:43.942Z,100196.19
2023-02-15T18:01:23.295Z,100187.13
2023-02-15T18:07:44.134Z,100196.44
2023-02-15T18:13:47.009Z,100183.38
2023-02-15T18:19:49.042Z,100192.94
2023-02-15T18:25:50.943Z,100179.50
2023-02-15T18:31:55.417Z,100195.69
2023-02-15T18:38:00.507Z,100178.97
2023-02-15T18:44:02.454Z,100186.06
2023-02-15T18:50:06.144Z,100184.78
2023-02-15T18:56:16.453Z,100187.25
2023-02-15T19:02:19.720Z,100192.91
2023-02-15T19:08:24.662Z,100190.78
2023-02-15T19:14:30.965Z,100183.31
2023-02-15T19:20:38.696Z,100172.16
2023-02-15T19:26:45.599Z,100169.91
2023-02-15T19:32:48.302Z,100169.16
2023-02-15T19:38:54.490Z,100179.53
2023-02-15T19:44:56.349Z,100180.97
2023-02-15T19:50:58.533Z,100189.50
2023-02-15T19:57:00.571Z,100186.25
2023-02-15T20:03:02.498Z,100196.72
2023-02-15T20:09:05.660Z,100200.69
2023-02-15T20:15:24.462Z,100205.72
2023-02-15T20:21:26.419Z,100174.84
2023-02-15T20:27:28.723Z,100173.63
2023-02-15T20:33:31.088Z,100184.31
2023-02-15T20:39:34.851Z,100197.91
2023-02-15T20:45:36.771Z,100200.06
2023-02-15T20:51:40.725Z,100211.97
2023-02-15T20:57:43.030Z,100209.06
2023-02-15T21:03:45.232Z,100203.19
2023-02-15T21:09:48.110Z,100205.34
2023-02-15T21:15:52.032Z,100214.25
2023-02-15T21:21:54.355Z,100202.94
2023-02-15T21:27:56.381Z,100184.09
2023-02-15T21:33:58.338Z,100181.69
2023-02-15T21:40:00.533Z,100189.47
2023-02-15T21:46:37.838Z,100190.25
2023-02-15T21:52:39.749Z,100197.97
2023-02-15T21:58:41.856Z,100192.81
2023-02-15T22:04:43.788Z,100187.53
2023-02-15T22:10:45.987Z,100197.69
2023-02-15T22:16:47.891Z,100194.00
2023-02-15T22:22:51.189Z,100201.00
2023-02-15T22:28:53.280Z,100208.66
2023-02-15T22:34:55.632Z,100199.56
2023-02-15T22:41:06.131Z,100209.97
2023-02-15T22:47:15.665Z,100202.34
2023-02-15T22:53:17.570Z,100188.09
2023-02-15T22:59:28.971Z,100184.38
2023-02-15T23:05:31.508Z,100184.16
2023-02-15T23:11:33.731Z,100187.00
2023-02-15T23:17:35.653Z,100184.56
2023-02-15T23:23:41.291Z,100188.28
2023-02-15T23:29:43.186Z,100179.56
2023-02-15T23:35:45.107Z,100174.28
2023-02-15T23:41:46.993Z,100178.72
2023-02-15T23:48:08.042Z,100172.81
2023-02-15T23:54:10.201Z,100196.56
